Time;durP1;ratioP1;P1;durP2;ratioP2;P2;SDS_P1;SDS_P2;PMS_P1;PMS_P2;Temp;Humidity;BMP_temperature;BMP_pressure;BME280_temperature;BME280_humidity;BME280_pressure;Samples;Min_cycle;Max_cycle;Signal;HPM_P1;HPM_P2
2022/09/01 00:00:27;;;;;;;27.85;18.08;;;13.60;99.90;;;;;;4840651;29;20450;-82
2022/09/01 00:02:55;;;;;;;27.05;17.98;;;13.60;99.90;;;;;;4855032;29;20058;-83
2022/09/01 00:05:23;;;;;;;48.03;20.23;;;13.60;99.90;;;;;;4840581;29;20057;-83
2022/09/01 00:07:51;;;;;;;26.67;17.27;;;13.70;99.90;;;;;;4838948;29;20378;-83
2022/09/01 00:10:19;;;;;;;22.35;17.42;;;13.60;99.90;;;;;;4840576;29;20069;-83
2022/09/01 00:12:47;;;;;;;26.63;18.40;;;13.70;99.90;;;;;;4838516;29;20053;-83
2022/09/01 00:15:16;;;;;;;25.65;16.17;;;13.60;99.90;;;;;;4875761;29;20620;-83
2022/09/01 00:17:44;;;;;;;23.20;16.77;;;13.60;99.90;;;;;;4860054;29;20190;-83
2022/09/01 00:20:12;;;;;;;28.42;17.23;;;13.60;99.90;;;;;;4877054;29;20049;-83
2022/09/01 00:22:47;;;;;;;29.42;17.80;;;13.70;99.90;;;;;;4875133;29;20056;-83
2022/09/01 00:25:18;;;;;;;24.13;16.08;;;13.70;99.90;;;;;;4877278;29;20514;-83
2022/09/01 00:27:48;;;;;;;25.58;16.60;;;13.70;99.90;;;;;;4875620;29;20399;-83
2022/09/01 00:30:16;;;;;;;27.75;16.20;;;13.70;99.90;;;;;;4876313;29;20049;-82
2022/09/01 00:32:45;;;;;;;38.92;18.33;;;13.60;99.90;;;;;;4875629;29;20410;-83
2022/09/01 00:35:16;;;;;;;24.13;17.95;;;13.60;99.90;;;;;;4877750;29;20064;-82
2022/09/01 00:37:44;;;;;;;23.65;17.23;;;13.60;99.90;;;;;;4875356;29;20565;-83
2022/09/01 00:40:14;;;;;;;20.88;15.20;;;13.60;99.90;;;;;;4873652;29;20055;-86
2022/09/01 00:42:43;;;;;;;28.42;18.15;;;13.60;99.90;;;;;;4852959;29;20057;-83
2022/09/01 00:45:15;;;;;;;24.55;17.83;;;13.60;99.90;;;;;;4822433;29;20062;-83
2022/09/01 00:47:43;;;;;;;22.25;16.17;;;13.50;99.90;;;;;;4854836;29;20057;-84
2022/09/01 00:50:13;;;;;;;27.08;16.23;;;13.50;99.90;;;;;;4824541;29;20077;-86
2022/09/01 00:52:51;;;;;;;24.30;15.88;;;13.50;99.90;;;;;;4852531;29;20046;-87
2022/09/01 00:55:33;;;;;;;20.58;14.55;;;13.50;99.90;;;;;;4838796;29;20058;-86
2022/09/01 00:58:02;;;;;;;21.98;17.65;;;13.50;99.90;;;;;;4822896;29;20069;-86
2022/09/01 01:00:32;;;;;;;23.63;15.43;;;13.50;99.90;;;;;;4823168;29;20535;-86
2022/09/01 01:03:00;;;;;;;21.30;15.80;;;13.50;99.90;;;;;;4840499;29;20058;-86
2022/09/01 01:05:32;;;;;;;17.60;14.52;;;13.50;99.90;;;;;;4822880;29;20045;-87
2022/09/01 01:08:02;;;;;;;22.42;14.95;;;13.50;99.90;;;;;;4820813;29;20034;-86
2022/09/01 01:10:34;;;;;;;24.98;15.63;;;13.50;99.90;;;;;;4808939;29;20389;-86
2022/09/01 01:13:11;;;;;;;22.48;13.70;;;13.50;99.90;;;;;;4837701;29;20052;-86
2022/09/01 01:15:42;;;;;;;20.27;15.75;;;13.50;99.90;;;;;;4849995;29;20052;-86
2022/09/01 01:18:14;;;;;;;30.70;16.00;;;13.50;99.90;;;;;;4874585;29;20072;-85
2022/09/01 01:24:00;;;;;;;16.85;14.38;;;13.40;99.90;;;;;;4837883;29;20053;-84
2022/09/01 01:26:28;;;;;;;22.90;13.05;;;13.40;99.90;;;;;;4823398;29;20311;-85
2022/09/01 01:28:56;;;;;;;18.25;13.80;;;13.40;99.90;;;;;;4822593;29;20057;-85
2022/09/01 01:31:24;;;;;;;19.15;15.02;;;13.40;99.90;;;;;;4805620;29;20060;-84
2022/09/01 01:33:57;;;;;;;18.38;13.45;;;13.50;99.90;;;;;;4804898;29;20057;-87
2022/09/01 01:36:31;;;;;;;22.48;16.15;;;13.40;99.90;;;;;;4838976;29;20049;-87
2022/09/01 01:39:08;;;;;;;23.20;13.38;;;13.40;99.90;;;;;;4821598;29;20053;-87
2022/09/01 01:41:42;;;;;;;18.50;14.15;;;13.30;99.90;;;;;;4822701;29;20061;-87
2022/09/01 01:44:13;;;;;;;20.90;12.40;;;13.40;99.90;;;;;;4822169;29;20054;-88
2022/09/01 01:46:44;;;;;;;14.38;10.50;;;13.30;99.90;;;;;;4838097;29;20049;-86
2022/09/01 01:49:19;;;;;;;;;;;13.30;99.90;;;;;;4807335;29;20053;-86
2022/09/01 01:51:56;;;;;;;14.93;10.40;;;13.30;99.90;;;;;;4841840;29;19924;-86
2022/09/01 01:54:30;;;;;;;11.93;9.80;;;13.30;99.90;;;;;;4852054;29;20046;-86
2022/09/01 01:57:00;;;;;;;17.92;13.80;;;13.30;99.90;;;;;;4837467;29;20085;-86
2022/09/01 01:59:29;;;;;;;18.08;12.30;;;13.30;99.90;;;;;;4822216;29;20053;-86
2022/09/01 02:01:57;;;;;;;18.95;12.40;;;13.20;99.90;;;;;;4853531;29;20420;-86
2022/09/01 02:04:26;;;;;;;14.60;11.52;;;13.20;99.90;;;;;;4852562;29;20042;-86
2022/09/01 02:06:54;;;;;;;17.33;12.07;;;13.20;99.90;;;;;;4837723;29;20068;-87
2022/09/01 02:09:22;;;;;;;19.45;12.73;;;12.90;99.90;;;;;;4820470;29;20416;-86
2022/09/01 02:11:54;;;;;;;12.90;10.15;;;13.10;99.90;;;;;;4837486;29;20050;-87
2022/09/01 02:14:22;;;;;;;14.23;11.88;;;13.10;99.90;;;;;;4844526;29;20068;-87
2022/09/01 02:16:49;;;;;;;13.45;11.20;;;13.10;99.90;;;;;;4859032;29;20518;-86
2022/09/01 02:19:19;;;;;;;17.15;11.27;;;13.10;99.90;;;;;;4858171;29;20526;-86
2022/09/01 02:21:53;;;;;;;16.85;12.10;;;13.00;99.90;;;;;;4858806;29;20056;-86
2022/09/01 02:24:22;;;;;;;15.15;10.65;;;13.00;99.90;;;;;;4872711;29;20049;-86
2022/09/01 02:27:08;;;;;;;14.55;10.50;;;13.00;99.90;;;;;;4874472;29;20053;-87
2022/09/01 02:29:37;;;;;;;16.35;11.50;;;13.00;99.90;;;;;;4857691;29;20049;-86
2022/09/01 02:32:10;;;;;;;12.63;10.98;;;13.00;99.90;;;;;;4858407;29;20045;-87
2022/09/01 02:34:38;;;;;;;12.23;10.73;;;12.90;99.90;;;;;;4858938;29;20410;-86
2022/09/01 02:37:06;;;;;;;14.15;10.05;;;12.90;99.90;;;;;;4858672;29;20411;-87
2022/09/01 02:39:34;;;;;;;14.70;11.23;;;12.90;99.90;;;;;;4872174;29;20048;-86
2022/09/01 02:42:02;;;;;;;14.63;10.45;;;12.80;99.90;;;;;;4840645;29;20061;-86
2022/09/01 02:44:30;;;;;;;14.85;11.43;;;12.80;99.90;;;;;;4836916;29;20046;-85
2022/09/01 02:47:00;;;;;;;15.43;10.02;;;12.80;99.90;;;;;;4822735;29;20060;-86
2022/09/01 02:49:28;;;;;;;13.90;10.30;;;12.70;99.90;;;;;;4824070;29;20042;-86
2022/09/01 02:52:00;;;;;;;16.48;10.77;;;12.60;99.90;;;;;;4825653;29;20046;-86
2022/09/01 02:54:31;;;;;;;14.63;9.98;;;12.70;99.90;;;;;;4855048;29;20065;-87
2022/09/01 02:56:59;;;;;;;16.23;11.38;;;12.70;99.90;;;;;;4840273;29;20064;-86
2022/09/01 02:59:29;;;;;;;15.65;10.13;;;12.60;99.90;;;;;;4824965;29;20223;-87
2022/09/01 03:02:00;;;;;;;14.52;11.20;;;12.60;99.90;;;;;;4825785;29;20054;-86
2022/09/01 03:04:33;;;;;;;18.13;11.15;;;12.60;99.90;;;;;;4810069;29;20057;-87
2022/09/01 03:07:04;;;;;;;13.60;10.25;;;12.60;99.90;;;;;;4840945;29;20053;-87
2022/09/01 03:09:32;;;;;;;10.32;9.30;;;12.60;99.90;;;;;;4853401;29;20050;-86
2022/09/01 03:12:01;;;;;;;14.35;9.48;;;12.60;99.90;;;;;;4840506;29;20404;-86
2022/09/01 03:14:30;;;;;;;11.10;10.00;;;12.60;99.90;;;;;;4848892;29;20053;-86
2022/09/01 03:16:59;;;;;;;15.32;11.32;;;12.50;99.90;;;;;;4862149;29;20410;-86
2022/09/01 03:19:31;;;;;;;12.60;10.80;;;12.40;99.90;;;;;;4852386;29;20347;-86
2022/09/01 03:21:58;;;;;;;13.98;10.98;;;12.40;99.90;;;;;;4843616;29;20056;-86
2022/09/01 03:24:31;;;;;;;16.60;11.40;;;12.40;99.90;;;;;;4857491;29;20041;-87
2022/09/01 03:26:59;;;;;;;11.85;8.90;;;12.30;99.90;;;;;;4858946;29;20060;-87
2022/09/01 03:29:27;;;;;;;16.25;10.32;;;12.30;99.90;;;;;;4858199;29;20526;-87
2022/09/01 03:31:55;;;;;;;13.55;10.27;;;12.30;99.90;;;;;;4843218;29;20399;-88
2022/09/01 03:34:23;;;;;;;12.52;11.15;;;12.30;99.90;;;;;;4843002;29;20249;-87
2022/09/01 03:36:53;;;;;;;14.07;12.00;;;12.30;99.90;;;;;;4843085;29;20045;-87
2022/09/01 03:39:26;;;;;;;17.70;14.38;;;12.30;99.90;;;;;;4825672;29;20061;-88
2022/09/01 03:41:57;;;;;;;11.52;8.18;;;12.30;99.90;;;;;;4858684;29;20061;-87
2022/09/01 03:44:34;;;;;;;25.50;12.15;;;12.20;99.90;;;;;;4843217;29;20399;-88
2022/09/01 03:47:02;;;;;;;25.42;9.98;;;12.20;99.90;;;;;;4827869;29;20057;-87
2022/09/01 03:49:31;;;;;;;15.57;10.60;;;12.20;99.90;;;;;;4841996;29;20042;-88
2022/09/01 03:52:00;;;;;;;14.60;10.32;;;12.10;99.90;;;;;;4827720;29;20050;-87
2022/09/01 03:54:29;;;;;;;14.07;10.52;;;12.00;99.90;;;;;;4841800;29;20057;-87
2022/09/01 03:56:58;;;;;;;11.00;8.57;;;12.00;99.90;;;;;;4842837;29;20054;-87
2022/09/01 03:59:28;;;;;;;12.40;9.35;;;12.00;99.90;;;;;;4858277;29;20396;-87
2022/09/01 04:01:58;;;;;;;11.30;8.77;;;12.00;99.90;;;;;;4843819;29;20045;-87
2022/09/01 04:04:26;;;;;;;12.88;9.60;;;12.00;99.90;;;;;;4842749;29;20049;-87
2022/09/01 04:06:57;;;;;;;12.40;10.13;;;12.00;99.90;;;;;;4827631;29;20420;-87
2022/09/01 04:09:26;;;;;;;15.25;11.55;;;11.90;99.90;;;;;;4824892;29;20053;-87
2022/09/01 04:11:54;;;;;;;15.63;11.25;;;11.90;99.90;;;;;;4858061;29;20030;-87
2022/09/01 04:14:24;;;;;;;15.13;11.00;;;11.90;99.90;;;;;;4862304;29;20064;-87
2022/09/01 04:19:42;;;;;;;14.93;10.10;;;11.90;99.90;;;;;;4859830;29;20056;-87
2022/09/01 04:22:13;;;;;;;14.93;10.52;;;11.90;99.90;;;;;;4861484;29;20064;-87
2022/09/01 04:24:44;;;;;;;11.70;9.15;;;11.90;99.90;;;;;;4859247;29;20056;-88
2022/09/01 04:27:16;;;;;;;14.40;10.10;;;11.90;99.90;;;;;;4861134;29;20232;-87
2022/09/01 04:29:51;;;;;;;13.55;11.13;;;11.90;99.90;;;;;;4860480;29;20060;-87
2022/09/01 04:32:26;;;;;;;;;;;11.80;99.90;;;;;;4861060;29;20049;-87
2022/09/01 04:34:57;;;;;;;14.55;11.30;;;12.00;99.90;;;;;;4876116;29;20216;-87
2022/09/01 04:37:27;;;;;;;17.40;11.27;;;12.00;99.90;;;;;;4859067;29;20056;-87
2022/09/01 04:39:58;;;;;;;16.45;11.48;;;12.00;99.90;;;;;;4860332;29;20045;-88
2022/09/01 04:42:31;;;;;;;13.32;11.30;;;12.00;99.90;;;;;;4838948;29;20057;-88
2022/09/01 04:45:01;;;;;;;13.40;10.93;;;12.00;99.90;;;;;;4823292;29;20065;-87
2022/09/01 04:47:44;;;;;;;11.07;9.15;;;12.00;99.90;;;;;;4824350;29;20492;-86
2022/09/01 04:50:16;;;;;;;11.85;10.13;;;12.00;99.90;;;;;;4839164;29;20425;-87
2022/09/01 04:53:23;;;;;;;12.40;9.25;;;12.00;99.90;;;;;;4830244;29;20515;-86
2022/09/01 04:55:55;;;;;;;13.73;11.25;;;12.10;99.90;;;;;;4838044;29;20053;-87
2022/09/01 04:58:27;;;;;;;13.25;11.43;;;12.10;99.90;;;;;;4811798;29;20046;-87
2022/09/01 05:00:55;;;;;;;19.38;12.82;;;12.20;99.90;;;;;;4840825;29;20400;-87
2022/09/01 05:03:23;;;;;;;15.38;11.75;;;12.20;99.90;;;;;;4810992;29;20050;-87
2022/09/01 05:06:12;;;;;;;15.52;10.52;;;12.30;99.90;;;;;;4841702;29;20058;-88
2022/09/01 05:08:43;;;;;;;14.32;10.50;;;12.30;99.90;;;;;;4839417;29;20056;-87
2022/09/01 05:11:26;;;;;;;19.77;14.10;;;12.30;99.90;;;;;;4841454;29;20238;-87
2022/09/01 05:14:06;;;;;;;16.55;11.55;;;12.30;99.90;;;;;;4842970;29;20064;-87
2022/09/01 05:16:34;;;;;;;15.25;11.93;;;12.30;99.90;;;;;;4862788;29;20045;-87
2022/09/01 05:19:03;;;;;;;16.38;12.32;;;12.30;99.90;;;;;;4856519;29;20064;-87
2022/09/01 05:21:36;;;;;;;;;;;12.30;99.90;;;;;;4859898;29;20056;-88
2022/09/01 05:24:04;;;;;;;18.63;11.77;;;12.30;99.90;;;;;;4858037;29;19928;-86
2022/09/01 05:26:33;;;;;;;21.15;12.30;;;12.40;99.90;;;;;;4829521;29;20502;-87
2022/09/01 05:29:40;;;;;;;16.08;12.15;;;12.40;99.90;;;;;;4858825;29;20048;-86
2022/09/01 05:32:38;;;;;;;16.08;11.65;;;12.40;99.90;;;;;;4855957;29;20547;-87
2022/09/01 05:35:08;;;;;;;16.63;11.50;;;12.50;99.90;;;;;;4841390;29;20061;-87
2022/09/01 05:37:36;;;;;;;21.35;15.77;;;12.50;99.90;;;;;;4839253;29;20060;-87
2022/09/01 05:40:08;;;;;;;17.58;13.35;;;12.50;99.90;;;;;;4825763;29;20057;-88
2022/09/01 05:42:39;;;;;;;18.42;12.80;;;12.50;99.90;;;;;;4826934;29;20046;-88
2022/09/01 05:45:10;;;;;;;21.85;14.75;;;12.50;99.90;;;;;;4841091;29;20084;-87
2022/09/01 05:47:40;;;;;;;19.05;13.75;;;12.50;99.90;;;;;;4825129;29;20041;-88
2022/09/01 05:50:10;;;;;;;22.73;14.05;;;12.60;99.90;;;;;;4826361;29;20491;-88
2022/09/01 05:52:55;;;;;;;24.25;15.38;;;12.60;99.90;;;;;;4855991;29;20049;-86
2022/09/01 05:55:34;;;;;;;20.05;14.73;;;12.70;99.90;;;;;;4840920;29;20508;-88
2022/09/01 05:58:12;;;;;;;24.92;17.50;;;12.70;99.90;;;;;;4825000;29;20053;-87
2022/09/01 06:00:42;;;;;;;25.23;15.88;;;12.60;99.90;;;;;;4825621;29;20050;-87
2022/09/01 06:03:10;;;;;;;24.52;16.70;;;12.70;99.90;;;;;;4825624;29;20405;-87
2022/09/01 06:05:43;;;;;;;26.42;17.13;;;12.70;99.90;;;;;;4840897;29;20049;-87
2022/09/01 06:08:12;;;;;;;21.10;15.25;;;12.70;99.90;;;;;;4840409;29;20060;-86
2022/09/01 06:10:42;;;;;;;;;;;12.80;99.90;;;;;;4856951;29;20395;-86
2022/09/01 06:13:14;;;;;;;23.98;17.02;;;12.90;99.90;;;;;;4869994;29;19931;-87
2022/09/01 06:15:43;;;;;;;23.23;16.58;;;12.90;99.90;;;;;;4856841;29;20052;-86
2022/09/01 06:18:16;;;;;;;23.23;15.68;;;12.90;99.90;;;;;;4861931;29;20100;-87
2022/09/01 06:20:52;;;;;;;21.65;13.80;;;12.90;99.90;;;;;;4862852;29;20052;-87
2022/09/01 06:23:32;;;;;;;20.63;15.75;;;12.90;99.90;;;;;;4860792;29;20055;-87
2022/09/01 06:26:02;;;;;;;21.75;15.57;;;12.90;99.90;;;;;;4876253;29;20063;-87
2022/09/01 06:28:30;;;;;;;20.08;13.73;;;12.90;99.90;;;;;;4861158;29;20068;-87
2022/09/01 06:31:06;;;;;;;24.42;16.90;;;12.90;99.90;;;;;;4878427;29;20382;-89
2022/09/01 06:33:34;;;;;;;20.90;13.63;;;12.90;99.90;;;;;;4876798;29;20395;-87
2022/09/01 06:36:08;;;;;;;22.58;14.07;;;13.00;99.90;;;;;;4862406;29;20044;-88
2022/09/01 06:39:18;;;;;;;25.83;13.23;;;13.00;99.90;;;;;;4860042;29;20053;-88
2022/09/01 06:42:01;;;;;;;19.55;14.20;;;13.00;99.90;;;;;;4854457;29;20241;-87
2022/09/01 06:44:46;;;;;;;14.68;11.45;;;13.10;99.90;;;;;;4858339;29;20049;-88
2022/09/01 06:47:15;;;;;;;20.38;12.52;;;13.20;99.90;;;;;;4859236;29;20060;-86
2022/09/01 06:49:43;;;;;;;17.75;13.23;;;13.30;99.90;;;;;;4858073;29;20048;-87
2022/09/01 06:52:19;;;;;;;23.98;15.30;;;13.30;99.90;;;;;;4846748;29;20046;-86
2022/09/01 06:54:52;;;;;;;17.05;12.38;;;13.40;99.90;;;;;;4841018;29;20052;-87
2022/09/01 06:57:21;;;;;;;21.25;13.60;;;13.40;99.90;;;;;;4839593;29;20060;-87
2022/09/01 07:00:19;;;;;;;21.15;13.90;;;13.50;99.90;;;;;;4839478;29;20506;-86
2022/09/01 07:02:54;;;;;;;15.48;10.73;;;13.70;99.90;;;;;;4855455;29;20060;-87
2022/09/01 07:05:43;;;;;;;16.60;12.63;;;13.80;99.90;;;;;;4855314;29;20046;-88
2022/09/01 07:08:52;;;;;;;15.82;10.20;;;13.90;99.90;;;;;;4843006;29;20076;-88
2022/09/01 07:11:52;;;;;;;13.05;11.65;;;13.90;99.90;;;;;;4855321;29;20072;-86
2022/09/01 07:14:48;;;;;;;14.52;10.60;;;14.10;99.90;;;;;;4849251;29;20057;-88
2022/09/01 07:17:40;;;;;;;14.32;9.10;;;14.00;99.90;;;;;;4863194;29;20052;-87
2022/09/01 07:20:16;;;;;;;16.25;9.70;;;14.40;99.90;;;;;;4860743;29;20044;-87
2022/09/01 07:23:01;;;;;;;14.93;10.63;;;14.30;99.90;;;;;;4876086;29;20079;-87
2022/09/01 07:25:42;;;;;;;17.92;10.77;;;14.20;99.90;;;;;;4861734;29;20446;-87
2022/09/01 07:29:09;;;;;;;16.35;11.65;;;14.20;99.90;;;;;;4872973;29;20063;-86
2022/09/01 07:31:43;;;;;;;15.90;10.93;;;14.00;99.90;;;;;;4840242;29;20057;-88
2022/09/01 07:34:43;;;;;;;14.85;10.60;;;14.10;99.90;;;;;;4825630;29;20065;-87
2022/09/01 07:37:36;;;;;;;16.92;13.52;;;14.10;99.90;;;;;;4856535;29;20057;-88
2022/09/01 07:40:27;;;;;;;13.25;11.25;;;14.10;99.90;;;;;;4842423;29;20049;-87
2022/09/01 07:43:50;;;;;;;17.40;10.27;;;14.10;99.90;;;;;;4841781;29;20376;-87
2022/09/01 07:46:36;;;;;;;12.23;10.57;;;13.90;99.90;;;;;;4860148;29;20045;-86
2022/09/01 07:49:17;;;;;;;10.77;9.52;;;14.00;99.90;;;;;;4857391;29;20057;-86
2022/09/01 07:52:53;;;;;;;14.00;11.73;;;13.90;99.90;;;;;;4858318;29;20482;-87
2022/09/01 07:55:26;;;;;;;13.57;10.57;;;13.90;99.90;;;;;;4827340;29;20083;-87
2022/09/01 07:58:12;;;;;;;14.20;12.30;;;13.90;99.90;;;;;;4839059;29;20061;-88
2022/09/01 08:01:10;;;;;;;;;;;14.00;99.90;;;;;;4840017;29;20053;-87
2022/09/01 08:03:40;;;;;;;13.75;10.85;;;14.00;99.90;;;;;;4839288;29;19951;-87
2022/09/01 08:06:33;;;;;;;15.55;11.93;;;14.10;99.90;;;;;;4825486;29;20061;-87
2022/09/01 08:09:09;;;;;;;17.75;12.90;;;14.20;99.90;;;;;;4852705;29;20046;-87
2022/09/01 08:12:09;;;;;;;15.55;11.43;;;14.30;99.90;;;;;;4840966;29;20539;-86
2022/09/01 08:15:05;;;;;;;13.48;10.93;;;14.30;99.90;;;;;;4856285;29;20404;-88
2022/09/01 08:17:55;;;;;;;18.25;12.48;;;14.40;99.90;;;;;;4875189;29;20049;-87
2022/09/01 08:20:46;;;;;;;16.23;12.75;;;14.50;99.90;;;;;;4876177;29;20041;-88
2022/09/01 08:23:49;;;;;;;14.50;13.00;;;14.60;99.90;;;;;;4878976;29;20218;-86
2022/09/01 08:26:23;;;;;;;14.95;12.02;;;14.70;99.90;;;;;;4877130;29;20399;-86
2022/09/01 08:28:52;;;;;;;14.10;12.23;;;14.60;99.90;;;;;;4859631;29;20060;-87
2022/09/01 08:31:34;;;;;;;17.98;12.23;;;14.60;99.90;;;;;;4876205;29;20057;-86
2022/09/01 08:34:22;;;;;;;13.32;11.98;;;14.70;99.90;;;;;;4860792;29;20064;-86
2022/09/01 08:36:54;;;;;;;18.60;13.90;;;14.80;99.90;;;;;;4860444;29;20415;-87
2022/09/01 08:39:38;;;;;;;15.88;14.30;;;14.80;99.90;;;;;;4859669;29;20490;-87
2022/09/01 08:42:37;;;;;;;16.52;14.40;;;14.80;99.90;;;;;;4845546;29;20064;-88
2022/09/01 08:45:27;;;;;;;16.50;13.52;;;14.90;99.90;;;;;;4874881;29;20053;-86
2022/09/01 08:48:54;;;;;;;13.13;11.73;;;15.00;99.90;;;;;;4871241;29;20053;-87
2022/09/01 08:52:33;;;;;;;15.75;13.85;;;15.00;99.90;;;;;;4857421;29;20291;-87
2022/09/01 08:58:22;;;;;;;17.63;15.82;;;15.50;99.90;;;;;;4836411;29;20385;-85
2022/09/01 09:01:37;;;;;;;13.98;12.25;;;15.40;99.90;;;;;;4840100;29;20054;-86
2022/09/01 09:04:46;;;;;;;12.75;11.43;;;15.60;99.90;;;;;;4838265;29;20050;-85
2022/09/01 09:07:32;;;;;;;12.63;11.32;;;15.80;99.90;;;;;;4853662;29;20501;-84
2022/09/01 09:10:31;;;;;;;11.05;9.95;;;15.80;99.90;;;;;;4836253;29;20046;-86
2022/09/01 09:13:33;;;;;;;10.85;9.73;;;15.70;99.90;;;;;;4837970;29;20057;-87
2022/09/01 09:16:52;;;;;;;9.70;8.75;;;16.00;99.90;;;;;;4874321;29;20049;-88
2022/09/01 09:19:38;;;;;;;10.13;9.13;;;16.20;99.90;;;;;;4876164;29;20053;-86
2022/09/01 09:22:18;;;;;;;8.93;8.02;;;16.20;99.90;;;;;;4888194;29;20049;-85
2022/09/01 09:24:50;;;;;;;8.90;7.85;;;16.30;99.90;;;;;;4875066;29;20053;-87
2022/09/01 09:27:37;;;;;;;9.25;7.47;;;16.40;99.90;;;;;;4876047;29;20488;-85
2022/09/01 09:30:28;;;;;;;7.28;6.57;;;16.50;99.90;;;;;;4859020;29;20049;-85
2022/09/01 09:33:09;;;;;;;8.25;7.45;;;16.50;99.90;;;;;;4839839;29;20062;-86
2022/09/01 09:36:22;;;;;;;9.88;7.40;;;16.40;99.90;;;;;;4822882;29;20046;-87
2022/09/01 09:39:17;;;;;;;8.68;7.30;;;16.50;99.90;;;;;;4822420;29;20060;-87
2022/09/01 09:42:08;;;;;;;5.95;5.45;;;16.80;99.90;;;;;;4841154;29;20432;-86
2022/09/01 09:44:54;;;;;;;7.05;6.40;;;16.60;99.90;;;;;;4837775;29;20054;-86
2022/09/01 09:47:37;;;;;;;5.50;5.03;;;16.70;99.90;;;;;;4836934;29;20050;-85
2022/09/01 09:50:32;;;;;;;8.32;6.28;;;16.60;99.90;;;;;;4838956;29;20061;-84
2022/09/01 09:53:10;;;;;;;5.47;4.97;;;16.50;99.90;;;;;;4851104;29;20046;-85
2022/09/01 09:55:49;;;;;;;8.60;7.85;;;16.60;99.90;;;;;;4838633;29;20052;-86
2022/09/01 09:58:25;;;;;;;5.97;5.38;;;16.80;99.90;;;;;;4856632;29;20061;-81
2022/09/01 10:01:02;;;;;;;5.55;5.05;;;17.00;99.90;;;;;;4857174;29;20508;-83
2022/09/01 10:03:51;;;;;;;5.78;5.28;;;17.00;99.90;;;;;;4856775;29;20064;-82
2022/09/01 10:06:40;;;;;;;6.20;5.63;;;16.90;99.90;;;;;;4857659;29;20053;-83
2022/09/01 10:09:16;;;;;;;7.00;6.35;;;16.90;99.90;;;;;;4854842;29;20050;-83
2022/09/01 10:11:50;;;;;;;7.15;6.45;;;16.90;99.90;;;;;;4855584;29;20054;-81
2022/09/01 10:14:22;;;;;;;8.18;7.25;;;16.90;99.90;;;;;;4831522;29;20056;-87
2022/09/01 10:17:28;;;;;;;5.70;5.20;;;17.00;99.90;;;;;;4876740;29;20044;-84
2022/09/01 10:20:12;;;;;;;10.18;6.22;;;17.00;99.90;;;;;;4893076;29;20036;-88
2022/09/01 10:22:47;;;;;;;11.23;7.72;;;17.10;99.90;;;;;;4876632;29;20067;-85
2022/09/01 10:25:29;;;;;;;6.15;5.53;;;17.10;99.90;;;;;;4861090;29;20379;-86
2022/09/01 10:28:20;;;;;;;6.03;5.55;;;17.20;99.90;;;;;;4893337;29;20604;-83
2022/09/01 10:30:58;;;;;;;6.13;5.15;;;17.20;99.90;;;;;;4876932;29;20415;-84
2022/09/01 10:33:43;;;;;;;6.00;5.40;;;17.30;99.90;;;;;;4893532;29;20048;-85
2022/09/01 10:36:18;;;;;;;5.15;4.00;;;17.30;99.90;;;;;;4877168;29;20224;-84
2022/09/01 10:39:17;;;;;;;5.25;4.72;;;17.30;99.90;;;;;;4860258;29;20402;-88
2022/09/01 10:42:25;;;;;;;5.15;4.75;;;17.40;99.90;;;;;;4891421;29;20045;-86
2022/09/01 10:45:31;;;;;;;4.57;4.18;;;17.30;99.90;;;;;;4846994;29;20521;-86
2022/09/01 10:48:37;;;;;;;6.28;4.00;;;17.40;99.90;;;;;;4891781;29;20491;-85
2022/09/01 10:51:28;;;;;;;4.45;4.07;;;17.50;99.90;;;;;;4834995;29;20041;-84
2022/09/01 10:54:06;;;;;;;4.47;4.05;;;17.50;99.90;;;;;;4826300;29;20045;-83
2022/09/01 10:56:48;;;;;;;5.90;4.07;;;17.60;99.90;;;;;;4875041;29;20072;-83
2022/09/01 10:59:24;;;;;;;4.97;4.50;;;17.80;99.90;;;;;;4874620;29;20061;-81
2022/09/01 11:02:07;;;;;;;3.90;3.63;;;17.90;99.90;;;;;;4857429;29;20057;-83
2022/09/01 11:04:58;;;;;;;4.28;3.55;;;18.00;99.90;;;;;;4865509;29;20080;-83
2022/09/01 11:07:37;;;;;;;5.88;4.13;;;18.10;99.90;;;;;;4842009;29;20048;-84
2022/09/01 11:10:48;;;;;;;6.43;5.47;;;18.20;99.90;;;;;;4847497;29;20057;-84
2022/09/01 11:13:31;;;;;;;6.57;5.03;;;18.10;99.90;;;;;;4878733;29;20064;-82
2022/09/01 11:16:32;;;;;;;4.55;4.15;;;18.10;99.90;;;;;;4878340;29;20515;-83
2022/09/01 11:19:38;;;;;;;9.40;3.60;;;17.60;99.90;;;;;;4897483;29;20427;-83
2022/09/01 11:22:40;;;;;;;4.20;3.75;;;17.90;99.90;;;;;;4879222;29;20067;-82
2022/09/01 11:25:12;;;;;;;3.78;3.50;;;17.90;99.90;;;;;;4879772;29;20052;-83
2022/09/01 11:27:49;;;;;;;5.78;3.58;;;17.80;99.90;;;;;;4896226;29;20048;-83
2022/09/01 11:30:47;;;;;;;3.58;3.35;;;18.20;99.90;;;;;;4853882;29;20419;-82
2022/09/01 11:33:25;;;;;;;3.83;3.22;;;18.40;99.90;;;;;;4859038;29;20045;-84
2022/09/01 11:36:04;;;;;;;5.35;4.90;;;18.50;99.90;;;;;;4859381;29;20046;-82
2022/09/01 11:39:15;;;;;;;6.43;5.78;;;18.60;99.90;;;;;;4826271;29;20057;-82
2022/09/01 11:42:29;;;;;;;3.83;3.53;;;18.70;99.90;;;;;;4855096;29;20060;-85
2022/09/01 11:45:43;;;;;;;5.85;3.55;;;18.60;99.90;;;;;;4841565;29;20416;-84
2022/09/01 11:48:30;;;;;;;3.55;3.35;;;18.50;99.90;;;;;;4838458;29;20420;-84
2022/09/01 11:51:01;;;;;;;5.28;3.80;;;18.60;99.90;;;;;;4859946;29;20057;-84
2022/09/01 11:53:30;;;;;;;3.42;3.13;;;18.50;99.90;;;;;;4830456;29;20505;-84
2022/09/01 11:56:15;;;;;;;3.42;3.13;;;18.20;99.90;;;;;;4842843;29;20042;-85
2022/09/01 11:58:43;;;;;;;6.45;3.08;;;17.90;99.90;;;;;;4823913;29;20484;-84
2022/09/01 12:01:55;;;;;;;;;;;;;;;;;;;;;
2022/09/01 12:04:36;;;;;;;3.60;3.22;;;18.10;99.90;;;;;;4839264;29;20407;-83
2022/09/01 12:07:45;;;;;;;2.30;2.13;;;18.50;99.90;;;;;;4853274;29;20054;-81
2022/09/01 12:10:25;;;;;;;3.70;2.58;;;18.80;99.90;;;;;;4846163;29;20065;-84
2022/09/01 12:13:06;;;;;;;2.63;2.42;;;18.50;99.90;;;;;;4857471;29;20411;-84
2022/09/01 12:15:41;;;;;;;5.63;4.65;;;18.20;99.90;;;;;;4854778;29;20049;-85
2022/09/01 12:18:36;;;;;;;2.90;2.70;;;18.00;99.90;;;;;;4859891;29;20068;-84
2022/09/01 12:21:06;;;;;;;5.30;3.22;;;18.00;99.90;;;;;;4857611;29;20054;-81
2022/09/01 12:23:39;;;;;;;2.63;2.42;;;18.30;99.90;;;;;;4857561;29;20053;-82
2022/09/01 12:26:42;;;;;;;3.45;3.25;;;18.60;99.90;;;;;;4857709;29;20065;-88
2022/09/01 12:29:22;;;;;;;3.00;2.80;;;18.80;99.90;;;;;;4849774;29;20064;-86
2022/09/01 12:32:11;;;;;;;4.55;3.25;;;18.40;99.90;;;;;;4838594;29;20061;-83
2022/09/01 12:35:39;;;;;;;3.42;3.00;;;18.70;99.90;;;;;;4839247;29;20057;-85
2022/09/01 12:38:37;;;;;;;4.28;2.58;;;19.00;99.90;;;;;;4820407;29;20061;-84
2022/09/01 12:41:36;;;;;;;2.30;2.20;;;18.90;99.90;;;;;;4830235;29;20128;-85
2022/09/01 12:44:39;;;;;;;4.68;2.83;;;18.90;99.90;;;;;;4832080;29;20054;-85
2022/09/01 12:47:36;;;;;;;7.18;3.15;;;18.90;99.90;;;;;;4836552;29;20069;-85
2022/09/01 12:50:10;;;;;;;4.03;3.28;;;18.90;99.90;;;;;;4835243;29;20065;-84
2022/09/01 12:53:00;;;;;;;5.60;2.55;;;18.70;99.90;;;;;;4844864;29;20046;-84
2022/09/01 12:55:58;;;;;;;3.85;3.55;;;18.90;99.90;;;;;;4868579;29;20045;-83
2022/09/01 12:59:20;;;;;;;3.55;2.42;;;18.50;99.90;;;;;;4858352;29;20112;-85
2022/09/01 13:03:20;;;;;;;5.40;2.80;;;18.60;99.90;;;;;;4832378;29;20045;-86
2022/09/01 13:06:09;;;;;;;3.05;2.85;;;18.50;99.90;;;;;;4855770;29;20057;-85
2022/09/01 13:08:57;;;;;;;3.03;2.83;;;18.50;99.90;;;;;;4858274;29;20053;-83
2022/09/01 13:11:26;;;;;;;3.92;3.00;;;18.50;99.90;;;;;;4858656;29;20058;-82
2022/09/01 13:14:28;;;;;;;2.55;2.42;;;18.50;99.90;;;;;;4844632;29;20399;-87
2022/09/01 13:17:03;;;;;;;4.38;3.22;;;18.50;99.90;;;;;;4855664;29;20044;-87
2022/09/01 13:19:31;;;;;;;3.45;3.15;;;18.40;99.90;;;;;;4838800;29;20491;-87
2022/09/01 13:22:11;;;;;;;8.48;5.50;;;18.50;99.90;;;;;;4843821;29;20057;-88
2022/09/01 13:24:43;;;;;;;6.63;3.05;;;18.70;99.90;;;;;;4857448;29;20060;-88
2022/09/01 13:27:14;;;;;;;3.70;3.40;;;18.80;99.90;;;;;;4842435;29;20488;-87
2022/09/01 13:29:50;;;;;;;6.05;2.75;;;18.80;99.90;;;;;;4830596;29;20037;-86
2022/09/01 13:32:19;;;;;;;3.22;2.50;;;18.80;99.90;;;;;;4842979;29;20045;-87
2022/09/01 13:34:52;;;;;;;2.42;2.20;;;18.90;99.90;;;;;;4855907;29;20049;-86
2022/09/01 13:37:22;;;;;;;7.63;3.92;;;18.90;99.90;;;;;;4864326;29;20045;-87
2022/09/01 13:39:50;;;;;;;3.05;2.75;;;18.90;99.90;;;;;;4858050;29;20041;-86
2022/09/01 13:42:21;;;;;;;3.15;2.78;;;18.90;99.90;;;;;;4858585;29;20057;-87
2022/09/01 13:44:54;;;;;;;4.78;3.40;;;18.90;99.90;;;;;;4856986;29;20061;-87
2022/09/01 13:47:23;;;;;;;3.38;2.65;;;19.00;99.90;;;;;;4848180;29;20062;-87
2022/09/01 13:50:02;;;;;;;3.08;2.78;;;19.10;99.90;;;;;;4842474;29;20536;-87